createdAt,value
2023-01-19T00:00:55.497Z,11.97
2023-01-19T00:03:22.584Z,12.06
2023-01-19T00:05:49.709Z,12.20
2023-01-19T00:08:17.656Z,12.18
2023-01-19T00:10:46.034Z,12.25
2023-01-19T00:13:14.275Z,12.27
2023-01-19T00:15:41.414Z,12.29
2023-01-19T00:18:10.624Z,12.22
2023-01-19T00:20:38.083Z,12.20
2023-01-19T00:23:05.121Z,12.19
2023-01-19T00:25:32.191Z,12.18
2023-01-19T00:28:01.546Z,12.19
2023-01-19T00:30:28.698Z,12.14
2023-01-19T00:32:55.965Z,12.16
2023-01-19T00:35:22.925Z,12.09
2023-01-19T00:37:52.745Z,12.14
2023-01-19T00:40:19.818Z,12.06
2023-01-19T00:42:48.524Z,11.99
2023-01-19T00:45:19.451Z,11.98
2023-01-19T00:47:47.895Z,12.08
2023-01-19T00:50:16.864Z,12.17
2023-01-19T00:52:45.211Z,12.27
2023-01-19T00:55:14.597Z,12.25
2023-01-19T00:57:42.409Z,12.23
2023-01-19T01:00:13.650Z,12.35
2023-01-19T01:02:42.349Z,12.23
2023-01-19T01:05:10.272Z,12.24
2023-01-19T01:07:45.480Z,12.21
2023-01-19T01:10:17.768Z,12.31
2023-01-19T01:12:54.943Z,12.49
2023-01-19T01:15:33.016Z,12.45
2023-01-19T01:17:59.691Z,12.44
2023-01-19T01:20:28.697Z,12.44
2023-01-19T01:22:57.010Z,12.42
2023-01-19T01:25:25.433Z,12.49
2023-01-19T01:27:53.150Z,12.52
2023-01-19T01:30:20.978Z,12.54
2023-01-19T01:32:47.651Z,12.58
2023-01-19T01:35:14.805Z,12.55
2023-01-19T01:37:42.934Z,12.49
2023-01-19T01:40:13.779Z,12.45
2023-01-19T01:42:40.764Z,12.48
2023-01-19T01:45:16.777Z,12.46
2023-01-19T01:47:47.459Z,12.45
2023-01-19T01:50:27.641Z,12.39
2023-01-19T01:53:06.910Z,12.43
2023-01-19T01:55:39.227Z,12.45
2023-01-19T01:58:08.995Z,12.46
2023-01-19T02:00:55.047Z,12.29
2023-01-19T02:03:24.307Z,12.16
2023-01-19T02:05:52.103Z,12.17
2023-01-19T02:09:01.106Z,12.12
2023-01-19T02:11:48.780Z,12.01
2023-01-19T02:14:15.519Z,11.89
2023-01-19T02:16:42.725Z,11.80
2023-01-19T02:19:16.816Z,11.78
2023-01-19T02:21:55.069Z,11.82
2023-01-19T02:24:22.179Z,11.87
2023-01-19T02:26:49.573Z,11.82
2023-01-19T02:29:23.232Z,11.61
2023-01-19T02:31:50.653Z,11.46
2023-01-19T02:34:21.048Z,11.34
2023-01-19T02:37:15.343Z,11.06
2023-01-19T02:39:45.309Z,10.93
2023-01-19T02:42:17.638Z,10.88
2023-01-19T02:44:52.047Z,10.71
2023-01-19T02:47:19.831Z,10.65
2023-01-19T02:49:55.909Z,10.67
2023-01-19T02:52:22.875Z,10.57
2023-01-19T02:54:55.404Z,10.40
2023-01-19T02:57:24.652Z,10.18
2023-01-19T03:00:12.387Z,10.14
2023-01-19T03:02:51.049Z,10.05
2023-01-19T03:05:34.385Z,9.96
2023-01-19T03:08:34.275Z,9.79
2023-01-19T03:11:04.568Z,9.79
2023-01-19T03:13:52.922Z,10.24
2023-01-19T03:16:25.705Z,10.41
2023-01-19T03:19:02.567Z,10.63
2023-01-19T03:21:30.916Z,10.79
2023-01-19T03:24:02.985Z,10.82
2023-01-19T03:26:35.275Z,10.90
2023-01-19T03:29:04.556Z,10.88
2023-01-19T03:31:33.281Z,10.79
2023-01-19T03:34:08.103Z,10.74
2023-01-19T03:36:45.124Z,10.66
2023-01-19T03:39:15.568Z,10.75
2023-01-19T03:41:44.790Z,10.84
2023-01-19T03:44:12.236Z,10.86
2023-01-19T03:46:40.475Z,10.78
2023-01-19T03:49:08.592Z,10.55
2023-01-19T03:51:37.711Z,10.47
2023-01-19T03:54:05.866Z,10.47
2023-01-19T03:56:33.868Z,10.24
2023-01-19T03:59:00.681Z,10.05
2023-01-19T04:01:27.847Z,9.90
2023-01-19T04:03:54.973Z,9.73
2023-01-19T04:06:22.061Z,9.57
2023-01-19T04:08:50.547Z,9.67
2023-01-19T04:11:17.758Z,9.89
2023-01-19T04:13:47.969Z,10.22
2023-01-19T04:16:20.168Z,10.57
2023-01-19T04:18:47.557Z,10.87
2023-01-19T04:21:14.944Z,11.11
2023-01-19T04:23:42.347Z,11.48
2023-01-19T04:26:09.571Z,11.49
2023-01-19T04:28:39.634Z,11.77
2023-01-19T04:31:07.609Z,11.66
2023-01-19T04:33:34.448Z,11.67
2023-01-19T04:36:01.959Z,11.76
2023-01-19T04:38:28.742Z,11.91
2023-01-19T04:40:55.927Z,11.92
2023-01-19T04:43:24.061Z,11.94
2023-01-19T04:45:53.998Z,11.92
2023-01-19T04:48:20.900Z,11.83
2023-01-19T04:50:47.880Z,11.64
2023-01-19T04:53:16.404Z,11.54
2023-01-19T04:55:43.579Z,11.73
2023-01-19T04:58:10.412Z,11.91
2023-01-19T05:00:37.162Z,11.98
2023-01-19T05:03:05.341Z,11.96
2023-01-19T05:05:33.734Z,12.07
2023-01-19T05:08:00.828Z,12.14
2023-01-19T05:10:27.613Z,12.04
2023-01-19T05:12:54.692Z,12.10
2023-01-19T05:15:22.096Z,12.03
2023-01-19T05:17:49.082Z,12.05
2023-01-19T05:20:16.481Z,11.99
2023-01-19T05:22:50.933Z,11.96
2023-01-19T05:25:18.821Z,11.85
2023-01-19T05:27:45.908Z,11.94
2023-01-19T05:30:13.670Z,11.90
2023-01-19T05:32:40.419Z,11.83
2023-01-19T05:35:07.977Z,11.87
2023-01-19T05:37:34.976Z,11.83
2023-01-19T05:40:01.855Z,11.75
2023-01-19T05:42:28.495Z,11.75
2023-01-19T05:44:55.688Z,11.73
2023-01-19T05:47:22.390Z,11.85
2023-01-19T05:49:49.128Z,11.82
2023-01-19T05:52:16.357Z,11.87
2023-01-19T05:54:43.040Z,11.88
2023-01-19T05:57:10.997Z,11.93
2023-01-19T05:59:37.988Z,12.08
2023-01-19T06:02:04.662Z,11.99
2023-01-19T06:04:31.409Z,11.95
2023-01-19T06:06:58.159Z,11.97
2023-01-19T06:09:25.004Z,12.04
2023-01-19T06:11:54.237Z,11.98
2023-01-19T06:14:21.235Z,12.07
2023-01-19T06:16:47.981Z,12.02
2023-01-19T06:19:15.094Z,12.01
2023-01-19T06:21:44.733Z,12.05
2023-01-19T06:24:13.694Z,12.00
2023-01-19T06:26:40.679Z,12.05
2023-01-19T06:29:07.364Z,12.09
2023-01-19T06:31:34.034Z,12.29
2023-01-19T06:34:01.346Z,12.32
2023-01-19T06:36:28.215Z,12.32
2023-01-19T06:38:54.976Z,12.29
2023-01-19T06:41:22.090Z,12.38
2023-01-19T06:43:49.278Z,12.41
2023-01-19T06:46:16.399Z,12.40
2023-01-19T06:48:43.365Z,12.51
2023-01-19T06:51:13.322Z,12.53
2023-01-19T06:53:40.362Z,12.55
2023-01-19T06:56:08.229Z,12.51
2023-01-19T06:58:35.361Z,12.57
2023-01-19T07:01:04.307Z,12.57
2023-01-19T07:03:32.256Z,12.53
2023-01-19T07:06:02.351Z,12.49
2023-01-19T07:08:30.509Z,12.42
2023-01-19T07:11:24.856Z,12.44
2023-01-19T07:13:55.671Z,12.49
2023-01-19T07:16:22.503Z,12.53
2023-01-19T07:18:50.100Z,12.39
2023-01-19T07:21:17.317Z,12.50
2023-01-19T07:23:44.083Z,12.45
2023-01-19T07:26:11.201Z,12.51
2023-01-19T07:28:38.122Z,12.64
2023-01-19T07:31:05.255Z,12.64
2023-01-19T07:33:32.520Z,12.70
2023-01-19T07:35:59.451Z,12.61
2023-01-19T07:38:26.235Z,12.60
2023-01-19T07:41:04.636Z,12.57
2023-01-19T07:43:32.047Z,12.67
2023-01-19T07:46:00.870Z,12.64
2023-01-19T07:48:28.127Z,12.70
2023-01-19T07:51:11.074Z,12.69
2023-01-19T07:53:40.295Z,12.73
2023-01-19T07:56:08.011Z,12.82
2023-01-19T07:58:35.239Z,12.79
2023-01-19T08:01:06.871Z,12.72
2023-01-19T08:03:33.723Z,12.87
2023-01-19T08:06:00.926Z,13.01
2023-01-19T08:08:29.751Z,13.14
2023-01-19T08:10:58.163Z,13.10
2023-01-19T08:13:25.745Z,13.18
2023-01-19T08:15:54.252Z,13.32
2023-01-19T08:18:21.330Z,13.27
2023-01-19T08:20:48.354Z,13.33
2023-01-19T08:23:15.418Z,13.40
2023-01-19T08:25:45.175Z,13.41
2023-01-19T08:28:17.097Z,13.57
2023-01-19T08:30:45.150Z,13.67
2023-01-19T08:33:13.891Z,13.73
2023-01-19T08:35:42.918Z,13.89
2023-01-19T08:38:10.826Z,13.87
2023-01-19T08:40:38.810Z,13.91
2023-01-19T08:43:13.282Z,13.80
2023-01-19T08:45:42.557Z,13.76
2023-01-19T08:48:10.539Z,13.74
2023-01-19T08:50:38.032Z,13.71
2023-01-19T08:53:07.305Z,13.76
2023-01-19T08:55:36.274Z,13.82
2023-01-19T08:58:04.679Z,13.82
2023-01-19T09:00:34.358Z,13.84
2023-01-19T09:03:05.414Z,13.78
2023-01-19T09:05:40.441Z,13.82
2023-01-19T09:08:09.516Z,13.89
2023-01-19T09:10:38.137Z,13.89
2023-01-19T09:13:11.148Z,14.00
2023-01-19T09:15:39.729Z,14.14
2023-01-19T09:18:10.400Z,14.27
2023-01-19T09:20:39.310Z,14.28
2023-01-19T09:23:06.504Z,14.36
2023-01-19T09:25:33.374Z,14.40
2023-01-19T09:28:01.306Z,14.56
2023-01-19T09:30:28.807Z,14.63
2023-01-19T09:32:55.676Z,14.71
2023-01-19T09:35:22.419Z,14.73
2023-01-19T09:37:49.195Z,14.79
2023-01-19T09:40:20.947Z,14.80
2023-01-19T09:43:11.998Z,14.87
2023-01-19T09:46:01.781Z,14.90
2023-01-19T09:48:50.059Z,14.98
2023-01-19T09:51:28.261Z,15.21
2023-01-19T09:54:16.761Z,15.25
2023-01-19T09:56:45.407Z,15.28
2023-01-19T09:59:22.528Z,15.43
2023-01-19T10:02:18.139Z,15.58
2023-01-19T10:05:04.942Z,15.67
2023-01-19T10:08:16.607Z,15.64
2023-01-19T10:10:49.924Z,15.71
2023-01-19T10:13:30.742Z,15.83
2023-01-19T10:16:03.727Z,15.86
2023-01-19T10:18:51.902Z,15.80
2023-01-19T10:21:22.857Z,15.78
2023-01-19T10:23:52.331Z,15.84
2023-01-19T10:26:34.096Z,15.80
2023-01-19T10:29:19.938Z,15.80
2023-01-19T10:31:48.346Z,15.74
2023-01-19T10:34:23.022Z,15.77
2023-01-19T10:37:02.844Z,15.75
2023-01-19T10:39:29.995Z,15.78
2023-01-19T10:42:01.115Z,15.80
2023-01-19T10:44:35.143Z,15.75
2023-01-19T10:47:02.502Z,15.93
2023-01-19T10:49:42.876Z,15.91
2023-01-19T10:52:32.488Z,16.01
2023-01-19T10:55:01.100Z,16.02
2023-01-19T10:57:43.528Z,16.08
2023-01-19T11:00:42.271Z,16.18
2023-01-19T11:03:21.211Z,16.18
2023-01-19T11:05:51.133Z,16.34
2023-01-19T11:08:30.522Z,16.36
2023-01-19T11:11:08.723Z,16.32
2023-01-19T11:13:36.890Z,16.35
2023-01-19T11:16:28.735Z,16.28
2023-01-19T11:18:57.335Z,16.34
2023-01-19T11:21:27.103Z,16.21
2023-01-19T11:23:57.570Z,16.26
2023-01-19T11:26:39.583Z,16.24
2023-01-19T11:29:15.614Z,16.24
2023-01-19T11:31:42.348Z,16.19
2023-01-19T11:34:41.734Z,16.10
2023-01-19T11:37:30.240Z,16.08
2023-01-19T11:40:00.193Z,16.08
2023-01-19T11:42:30.369Z,16.06
2023-01-19T11:45:12.045Z,16.18
2023-01-19T11:47:43.315Z,16.19
2023-01-19T11:50:34.584Z,16.36
2023-01-19T11:53:04.051Z,16.30
2023-01-19T11:55:44.214Z,16.30
2023-01-19T11:58:17.245Z,16.45
2023-01-19T12:00:48.986Z,16.46
2023-01-19T12:03:24.152Z,16.57
2023-01-19T12:06:07.018Z,16.63
2023-01-19T12:08:39.984Z,16.53
2023-01-19T12:11:11.235Z,16.51
2023-01-19T12:13:40.716Z,16.56
2023-01-19T12:16:22.085Z,16.61
2023-01-19T12:18:55.672Z,16.66
2023-01-19T12:21:22.877Z,16.58
2023-01-19T12:24:13.223Z,16.56
2023-01-19T12:26:54.892Z,16.48
2023-01-19T12:29:25.890Z,16.40
2023-01-19T12:32:14.411Z,16.20
2023-01-19T12:34:43.855Z,16.19
2023-01-19T12:37:32.384Z,16.19
2023-01-19T12:40:25.823Z,16.16
2023-01-19T12:42:55.565Z,16.25
2023-01-19T12:45:32.217Z,16.15
2023-01-19T12:47:59.953Z,16.13
2023-01-19T12:50:29.445Z,16.22
2023-01-19T12:53:02.149Z,16.07
2023-01-19T12:55:33.295Z,16.10
2023-01-19T12:58:21.076Z,16.12
2023-01-19T13:00:50.196Z,16.07
2023-01-19T13:03:19.926Z,16.05
2023-01-19T13:05:49.411Z,15.97
2023-01-19T13:08:18.140Z,16.07
2023-01-19T13:10:54.223Z,16.00
2023-01-19T13:13:25.152Z,16.00
2023-01-19T13:15:55.902Z,16.04
2023-01-19T13:18:34.124Z,15.92
2023-01-19T13:21:05.384Z,15.88
2023-01-19T13:23:47.376Z,15.92
2023-01-19T13:26:16.972Z,15.77
2023-01-19T13:28:46.325Z,15.71
2023-01-19T13:31:14.063Z,15.77
2023-01-19T13:33:46.380Z,15.75
2023-01-19T13:36:23.766Z,15.65
2023-01-19T13:38:51.942Z,15.54
2023-01-19T13:41:25.097Z,15.63
2023-01-19T13:44:29.979Z,15.60
2023-01-19T13:46:59.618Z,15.53
2023-01-19T13:49:35.511Z,15.45
2023-01-19T13:52:19.445Z,15.61
2023-01-19T13:55:02.517Z,15.70
2023-01-19T13:57:39.554Z,15.65
2023-01-19T14:00:12.678Z,15.67
2023-01-19T14:02:55.234Z,15.70
2023-01-19T14:05:22.264Z,15.60
2023-01-19T14:07:59.176Z,15.63
2023-01-19T14:10:26.002Z,15.64
2023-01-19T14:13:04.729Z,15.57
2023-01-19T14:15:35.590Z,15.55
2023-01-19T14:18:17.648Z,15.62
2023-01-19T14:21:09.119Z,15.51
2023-01-19T14:23:51.043Z,15.50
2023-01-19T14:26:54.044Z,15.39
2023-01-19T14:29:32.766Z,15.37
2023-01-19T14:32:15.197Z,15.33
2023-01-19T14:34:43.226Z,15.19
2023-01-19T14:37:29.850Z,15.24
2023-01-19T14:39:56.497Z,15.11
2023-01-19T14:42:30.995Z,15.01
2023-01-19T14:45:02.284Z,14.91
2023-01-19T14:47:33.156Z,14.87
2023-01-19T14:50:07.521Z,14.88
2023-01-19T14:52:42.123Z,14.88
2023-01-19T14:55:21.043Z,14.78
2023-01-19T14:57:48.505Z,14.69
2023-01-19T15:00:20.439Z,14.65
2023-01-19T15:02:47.934Z,14.59
2023-01-19T15:05:14.779Z,14.54
2023-01-19T15:07:46.787Z,14.49
2023-01-19T15:10:19.282Z,14.52
2023-01-19T15:12:46.204Z,14.50
2023-01-19T15:15:15.720Z,14.41
2023-01-19T15:17:43.021Z,14.43
2023-01-19T15:20:21.757Z,14.40
2023-01-19T15:22:48.929Z,14.31
2023-01-19T15:25:21.893Z,14.29
2023-01-19T15:27:49.569Z,14.24
2023-01-19T15:30:23.672Z,14.24
2023-01-19T15:32:50.732Z,14.26
2023-01-19T15:35:20.106Z,14.14
2023-01-19T15:37:47.925Z,14.14
2023-01-19T15:40:15.009Z,14.10
2023-01-19T15:42:42.773Z,14.03
2023-01-19T15:45:48.612Z,14.09
2023-01-19T15:48:15.517Z,13.98
2023-01-19T15:50:45.074Z,13.92
2023-01-19T15:53:17.920Z,13.87
2023-01-19T15:55:49.835Z,13.85
2023-01-19T15:58:17.576Z,13.78
2023-01-19T16:00:44.772Z,13.81
2023-01-19T16:03:12.045Z,13.79
2023-01-19T16:05:43.604Z,13.72
2023-01-19T16:08:12.102Z,13.68
2023-01-19T16:10:39.607Z,13.60
2023-01-19T16:13:06.555Z,13.52
2023-01-19T16:15:36.557Z,13.40
2023-01-19T16:18:04.295Z,13.41
2023-01-19T16:20:31.115Z,13.36
2023-01-19T16:23:06.257Z,13.37
2023-01-19T16:25:41.247Z,13.34
2023-01-19T16:28:08.462Z,13.31
2023-01-19T16:30:35.494Z,13.29
2023-01-19T16:33:02.342Z,13.27
2023-01-19T16:35:29.357Z,13.26
2023-01-19T16:37:56.077Z,13.21
2023-01-19T16:40:22.835Z,13.19
2023-01-19T16:42:49.887Z,13.15
2023-01-19T16:45:16.935Z,13.12
2023-01-19T16:47:45.498Z,13.10
2023-01-19T16:50:12.612Z,13.06
2023-01-19T16:52:39.641Z,13.14
2023-01-19T16:55:09.586Z,13.12
2023-01-19T16:57:39.905Z,13.09
2023-01-19T17:00:09.685Z,13.02
2023-01-19T17:02:36.724Z,13.07
2023-01-19T17:05:03.944Z,13.13
2023-01-19T17:07:33.808Z,13.01
2023-01-19T17:10:00.950Z,13.05
2023-01-19T17:12:27.658Z,13.00
2023-01-19T17:14:54.668Z,12.97
2023-01-19T17:17:21.890Z,13.10
2023-01-19T17:19:48.819Z,13.15
2023-01-19T17:22:15.750Z,13.12
2023-01-19T17:24:44.010Z,13.01
2023-01-19T17:27:11.578Z,13.11
2023-01-19T17:29:38.371Z,13.12
2023-01-19T17:32:05.481Z,13.16
2023-01-19T17:34:32.462Z,13.04
2023-01-19T17:37:03.318Z,13.13
2023-01-19T17:39:30.992Z,13.04
2023-01-19T17:41:58.537Z,13.04
2023-01-19T17:44:25.233Z,12.95
2023-01-19T17:46:52.126Z,12.93
2023-01-19T17:49:19.186Z,12.94
2023-01-19T17:51:46.845Z,12.91
2023-01-19T17:54:14.532Z,12.84
2023-01-19T17:56:41.956Z,12.84
2023-01-19T17:59:08.982Z,12.89
2023-01-19T18:01:40.773Z,12.88
2023-01-19T18:04:09.387Z,12.84
2023-01-19T18:06:37.350Z,12.85
2023-01-19T18:09:05.248Z,12.87
2023-01-19T18:11:32.701Z,12.90
2023-01-19T18:14:03.012Z,12.86
2023-01-19T18:16:30.439Z,12.91
2023-01-19T18:18:57.415Z,12.87
2023-01-19T18:21:27.460Z,12.86
2023-01-19T18:24:02.504Z,12.87
2023-01-19T18:26:31.513Z,12.86
2023-01-19T18:28:58.878Z,12.87
2023-01-19T18:31:26.933Z,12.85
2023-01-19T18:33:54.317Z,12.85
2023-01-19T18:36:21.787Z,12.79
2023-01-19T18:38:49.739Z,12.81
2023-01-19T18:41:18.117Z,12.83
2023-01-19T18:43:45.460Z,12.82
2023-01-19T18:46:18.028Z,12.72
2023-01-19T18:48:45.179Z,12.75
2023-01-19T18:51:14.731Z,12.76
2023-01-19T18:53:42.960Z,12.71
2023-01-19T18:56:12.862Z,12.77
2023-01-19T18:58:40.542Z,12.74
2023-01-19T19:01:24.600Z,12.81
2023-01-19T19:03:52.844Z,12.81
2023-01-19T19:06:21.031Z,12.71
2023-01-19T19:08:52.087Z,12.66
2023-01-19T19:11:21.382Z,12.67
2023-01-19T19:14:00.330Z,12.69
2023-01-19T19:16:28.853Z,12.73
2023-01-19T19:18:56.343Z,12.75
2023-01-19T19:21:25.582Z,12.77
2023-01-19T19:23:54.648Z,12.60
2023-01-19T19:26:22.058Z,12.67
2023-01-19T19:28:52.144Z,12.73
2023-01-19T19:31:21.202Z,12.83
2023-01-19T19:33:51.728Z,12.83
2023-01-19T19:36:23.796Z,12.82
2023-01-19T19:38:50.642Z,12.81
2023-01-19T19:41:25.032Z,12.84
2023-01-19T19:43:51.918Z,12.88
2023-01-19T19:46:20.376Z,12.88
2023-01-19T19:48:48.887Z,12.85
2023-01-19T19:51:25.797Z,12.81
2023-01-19T19:53:59.170Z,12.77
2023-01-19T19:56:28.443Z,12.76
2023-01-19T19:58:56.802Z,12.71
2023-01-19T20:01:32.548Z,12.79
2023-01-19T20:04:06.938Z,12.82
2023-01-19T20:06:39.012Z,12.81
2023-01-19T20:09:08.120Z,12.84
2023-01-19T20:11:35.701Z,12.82
2023-01-19T20:14:10.219Z,12.78
2023-01-19T20:16:37.513Z,12.73
2023-01-19T20:19:04.986Z,12.79
2023-01-19T20:21:39.403Z,12.74
2023-01-19T20:24:10.401Z,12.72
2023-01-19T20:26:41.143Z,12.72
2023-01-19T20:29:10.404Z,12.76
2023-01-19T20:31:40.737Z,12.66
2023-01-19T20:34:09.381Z,12.66
2023-01-19T20:36:36.896Z,12.67
2023-01-19T20:39:09.609Z,12.72
2023-01-19T20:41:43.411Z,12.73
2023-01-19T20:44:12.154Z,12.67
2023-01-19T20:46:39.715Z,12.65
2023-01-19T20:49:07.455Z,12.58
2023-01-19T20:51:36.285Z,12.61
2023-01-19T20:54:04.114Z,12.58
2023-01-19T20:56:30.977Z,12.64
2023-01-19T20:58:59.418Z,12.71
2023-01-19T21:01:26.334Z,12.73
2023-01-19T21:03:53.750Z,12.69
2023-01-19T21:06:21.762Z,12.68
2023-01-19T21:08:51.908Z,12.75
2023-01-19T21:11:20.993Z,12.73
2023-01-19T21:13:49.070Z,12.76
2023-01-19T21:16:15.888Z,12.77
2023-01-19T21:18:43.046Z,12.77
2023-01-19T21:21:20.909Z,12.77
2023-01-19T21:24:00.000Z,12.76
2023-01-19T21:26:26.908Z,12.81
2023-01-19T21:28:53.890Z,12.77
2023-01-19T21:31:22.757Z,12.88
2023-01-19T21:33:53.601Z,12.81
2023-01-19T21:36:21.398Z,12.84
2023-01-19T21:38:48.481Z,12.87
2023-01-19T21:41:16.527Z,12.77
2023-01-19T21:43:43.615Z,12.81
2023-01-19T21:46:17.651Z,12.77
2023-01-19T21:48:46.033Z,12.86
2023-01-19T21:51:13.691Z,12.83
2023-01-19T21:53:43.407Z,12.72
2023-01-19T21:56:11.347Z,12.55
2023-01-19T21:58:38.503Z,12.53
2023-01-19T22:01:09.832Z,12.49
2023-01-19T22:03:36.967Z,12.63
2023-01-19T22:06:08.796Z,12.54
2023-01-19T22:08:35.935Z,12.42
2023-01-19T22:11:07.750Z,12.33
2023-01-19T22:13:36.401Z,12.36
2023-01-19T22:16:08.180Z,12.44
2023-01-19T22:18:36.122Z,12.30
2023-01-19T22:21:20.374Z,12.28
2023-01-19T22:23:52.170Z,12.26
2023-01-19T22:26:19.137Z,12.18
2023-01-19T22:28:46.667Z,12.09
2023-01-19T22:31:18.544Z,12.06
2023-01-19T22:33:45.768Z,12.03
2023-01-19T22:36:16.839Z,12.03
2023-01-19T22:38:44.816Z,11.95
2023-01-19T22:41:15.574Z,11.80
2023-01-19T22:43:42.743Z,11.73
2023-01-19T22:46:09.910Z,11.77
2023-01-19T22:48:36.734Z,11.70
2023-01-19T22:51:03.816Z,11.86
2023-01-19T22:53:31.309Z,11.71
2023-01-19T22:55:58.161Z,11.68
2023-01-19T22:58:25.216Z,11.64
2023-01-19T23:00:52.139Z,11.70
2023-01-19T23:03:18.919Z,11.70
2023-01-19T23:05:45.678Z,11.65
2023-01-19T23:08:15.002Z,11.57
2023-01-19T23:10:41.955Z,11.55
2023-01-19T23:13:11.577Z,11.61
2023-01-19T23:15:38.302Z,11.55
2023-01-19T23:18:05.319Z,11.51
2023-01-19T23:20:32.019Z,11.40
2023-01-19T23:22:58.661Z,11.37
2023-01-19T23:25:25.368Z,11.34
2023-01-19T23:27:52.110Z,11.21
2023-01-19T23:30:19.506Z,11.12
2023-01-19T23:32:49.984Z,11.13
2023-01-19T23:35:16.970Z,11.23
2023-01-19T23:37:44.035Z,11.25
2023-01-19T23:40:11.513Z,11.15
2023-01-19T23:42:38.500Z,11.63
2023-01-19T23:45:06.805Z,11.99
2023-01-19T23:47:35.802Z,12.22
2023-01-19T23:50:06.376Z,12.44
2023-01-19T23:52:36.253Z,12.50
2023-01-19T23:55:03.234Z,12.57
2023-01-19T23:57:34.768Z,12.65
